createdAt,value
2019-02-14T00:04:27.802Z,4.04
2019-02-14T00:09:31.224Z,4.01
2019-02-14T00:14:34.644Z,3.90
2019-02-14T00:19:38.221Z,3.89
2019-02-14T00:24:41.653Z,3.61
2019-02-14T00:29:45.077Z,3.41
2019-02-14T00:34:48.495Z,3.40
2019-02-14T00:39:51.927Z,3.44
2019-02-14T00:44:55.358Z,3.53
2019-02-14T00:49:58.774Z,3.46
2019-02-14T00:55:02.195Z,3.30
2019-02-14T01:00:08.126Z,3.29
2019-02-14T01:05:11.560Z,3.11
2019-02-14T01:10:15.097Z,3.04
2019-02-14T01:20:29.452Z,2.87
2019-02-14T01:25:32.857Z,2.87
2019-02-14T01:30:36.421Z,2.87
2019-02-14T01:35:42.025Z,3.08
2019-02-14T01:40:45.055Z,3.11
2019-02-14T01:45:48.494Z,3.08
2019-02-14T01:50:51.925Z,2.91
2019-02-14T01:55:55.370Z,2.75
2019-02-14T02:00:59.345Z,2.80
2019-02-14T02:06:02.774Z,2.90
2019-02-14T02:11:06.461Z,3.03
2019-02-14T02:16:09.936Z,2.96
2019-02-14T02:21:13.432Z,2.76
2019-02-14T02:26:16.895Z,2.66
2019-02-14T02:31:20.360Z,2.74
2019-02-14T02:36:23.766Z,2.77
2019-02-14T02:41:27.210Z,2.83
2019-02-14T02:46:30.727Z,2.92
2019-02-14T02:51:34.181Z,2.94
2019-02-14T02:56:37.610Z,2.98
2019-02-14T03:01:41.107Z,2.94
2019-02-14T03:06:44.554Z,2.90
2019-02-14T03:11:47.973Z,2.94
2019-02-14T03:16:51.406Z,2.99
2019-02-14T03:21:54.858Z,2.85
2019-02-14T03:26:58.373Z,2.65
2019-02-14T03:32:01.941Z,2.60
2019-02-14T03:37:05.369Z,2.63
2019-02-14T03:42:08.791Z,2.66
2019-02-14T03:47:12.223Z,2.51
2019-02-14T03:52:15.728Z,2.20
2019-02-14T03:57:19.159Z,1.96
2019-02-14T04:02:22.581Z,2.11
2019-02-14T04:07:26.054Z,2.13
2019-02-14T04:12:29.629Z,2.28
2019-02-14T04:17:33.068Z,2.32
2019-02-14T04:22:36.488Z,2.17
2019-02-14T04:27:39.916Z,2.13
2019-02-14T04:32:43.354Z,2.15
2019-02-14T04:37:46.845Z,2.11
2019-02-14T04:42:50.278Z,1.93
2019-02-14T04:47:53.787Z,1.93
2019-02-14T04:52:57.209Z,1.89
2019-02-14T04:58:00.650Z,1.80
2019-02-14T05:03:04.076Z,1.74
2019-02-14T05:08:07.575Z,1.75
2019-02-14T05:13:10.995Z,1.66
2019-02-14T05:18:15.454Z,1.74
2019-02-14T05:23:18.956Z,1.84
2019-02-14T05:28:22.491Z,1.88
2019-02-14T05:33:25.937Z,2.00
2019-02-14T05:38:29.372Z,2.08
2019-02-14T05:43:33.001Z,2.09
2019-02-14T05:48:36.462Z,2.12
2019-02-14T05:53:39.934Z,2.07
2019-02-14T05:58:43.399Z,2.12
2019-02-14T06:03:46.837Z,2.19
2019-02-14T06:08:50.333Z,2.11
2019-02-14T06:13:53.734Z,2.13
2019-02-14T06:18:57.355Z,2.12
2019-02-14T06:24:00.796Z,2.11
2019-02-14T06:29:04.215Z,2.12
2019-02-14T06:34:07.661Z,2.04
2019-02-14T06:39:11.097Z,2.11
2019-02-14T06:44:14.553Z,2.15
2019-02-14T06:49:18.004Z,2.14
2019-02-14T06:54:21.462Z,2.13
2019-02-14T06:59:25.054Z,2.02
2019-02-14T07:04:28.627Z,2.06
2019-02-14T07:09:32.087Z,1.94
2019-02-14T07:14:35.536Z,1.93
2019-02-14T07:19:38.911Z,1.84
2019-02-14T07:24:42.357Z,1.89
2019-02-14T07:29:45.813Z,1.89
2019-02-14T07:34:49.282Z,1.85
2019-02-14T07:39:52.723Z,2.02
2019-02-14T07:44:56.139Z,2.02
2019-02-14T07:49:59.569Z,1.92
2019-02-14T07:55:03.041Z,1.95
2019-02-14T08:00:10.088Z,1.99
2019-02-14T08:05:13.649Z,2.01
2019-02-14T08:10:18.901Z,2.12
2019-02-14T08:15:22.453Z,2.11
2019-02-14T08:20:25.962Z,2.10
2019-02-14T08:25:29.400Z,2.09
2019-02-14T08:30:32.844Z,2.13
2019-02-14T08:35:36.264Z,2.31
2019-02-14T08:40:39.746Z,2.48
2019-02-14T08:45:43.423Z,2.65
2019-02-14T08:50:46.852Z,2.75
2019-02-14T08:55:51.165Z,2.85
2019-02-14T09:00:54.582Z,2.96
2019-02-14T09:05:58.088Z,3.09
2019-02-14T09:11:01.526Z,3.24
2019-02-14T09:16:04.970Z,3.39
2019-02-14T09:21:08.760Z,3.53
2019-02-14T09:26:12.353Z,3.69
2019-02-14T09:31:15.783Z,3.90
2019-02-14T09:36:19.230Z,4.09
2019-02-14T09:41:22.667Z,4.31
2019-02-14T09:46:26.140Z,4.57
2019-02-14T09:51:30.473Z,4.86
2019-02-14T09:56:33.908Z,5.35
2019-02-14T10:01:37.363Z,5.67
2019-02-14T10:06:40.775Z,5.89
2019-02-14T10:11:44.288Z,6.11
2019-02-14T10:16:47.697Z,6.32
2019-02-14T10:21:51.405Z,6.52
2019-02-14T10:26:54.915Z,7.10
2019-02-14T10:31:58.372Z,7.69
2019-02-14T10:37:01.783Z,7.81
2019-02-14T10:42:05.212Z,8.18
2019-02-14T10:47:08.702Z,8.22
2019-02-14T10:52:12.140Z,8.39
2019-02-14T10:57:15.566Z,8.92
2019-02-14T11:02:19.420Z,9.50
2019-02-14T11:07:22.851Z,10.45
2019-02-14T11:12:26.334Z,11.44
2019-02-14T11:17:29.719Z,11.41
2019-02-14T11:22:33.130Z,11.28
2019-02-14T11:27:36.569Z,11.06
2019-02-14T11:32:39.991Z,10.81
2019-02-14T11:37:43.435Z,10.99
2019-02-14T11:42:47.018Z,11.48
2019-02-14T11:47:50.480Z,11.83
2019-02-14T11:52:53.903Z,12.18
2019-02-14T11:57:57.319Z,12.10
2019-02-14T12:03:00.924Z,12.10
2019-02-14T12:08:04.337Z,12.87
2019-02-14T12:13:07.922Z,12.82
2019-02-14T12:18:11.368Z,13.50
2019-02-14T12:23:14.791Z,13.32
2019-02-14T12:28:18.231Z,13.31
2019-02-14T12:33:22.099Z,13.92
2019-02-14T12:38:25.538Z,14.08
2019-02-14T12:43:29.055Z,14.25
2019-02-14T12:48:32.674Z,14.83
2019-02-14T12:53:36.091Z,15.05
2019-02-14T12:58:39.515Z,15.59
2019-02-14T13:03:42.943Z,15.77
2019-02-14T13:08:46.386Z,15.96
2019-02-14T13:13:50.698Z,15.66
2019-02-14T13:18:54.406Z,15.96
2019-02-14T13:23:57.840Z,15.93
2019-02-14T13:29:01.267Z,15.60
2019-02-14T13:34:04.699Z,16.08
2019-02-14T13:39:08.179Z,15.94
2019-02-14T13:44:11.592Z,16.12
2019-02-14T13:49:15.023Z,15.65
2019-02-14T13:54:18.474Z,15.64
2019-02-14T13:59:21.898Z,15.06
2019-02-14T14:04:25.339Z,15.40
2019-02-14T14:09:28.792Z,15.46
2019-02-14T14:14:32.257Z,15.46
2019-02-14T14:19:35.706Z,14.98
2019-02-14T14:24:39.144Z,15.02
2019-02-14T14:29:42.675Z,14.69
2019-02-14T14:34:46.097Z,14.58
2019-02-14T14:39:49.527Z,14.33
2019-02-14T14:44:53.589Z,14.08
2019-02-14T14:49:57.155Z,13.96
2019-02-14T14:55:00.761Z,13.76
2019-02-14T15:00:06.147Z,13.54
2019-02-14T15:05:09.658Z,13.29
2019-02-14T15:10:13.133Z,13.11
2019-02-14T15:15:16.543Z,12.94
2019-02-14T15:20:20.011Z,12.81
2019-02-14T15:25:23.611Z,12.68
2019-02-14T15:30:27.197Z,12.54
2019-02-14T15:35:30.646Z,12.41
2019-02-14T15:40:34.555Z,12.26
2019-02-14T15:45:39.269Z,12.12
2019-02-14T15:50:42.733Z,11.92
2019-02-14T15:55:46.362Z,11.74
2019-02-14T16:00:51.682Z,11.47
2019-02-14T16:05:55.302Z,11.32
2019-02-14T16:10:58.913Z,11.11
2019-02-14T16:16:02.352Z,10.89
2019-02-14T16:21:07.793Z,10.57
2019-02-14T16:26:12.949Z,10.17
2019-02-14T16:31:16.551Z,10.04
2019-02-14T16:36:20.718Z,9.75
2019-02-14T16:41:25.367Z,9.47
2019-02-14T16:46:28.780Z,9.19
2019-02-14T16:51:32.193Z,8.93
2019-02-14T16:56:35.659Z,8.72
2019-02-14T17:01:39.091Z,8.54
2019-02-14T17:06:42.511Z,8.29
2019-02-14T17:11:45.934Z,8.13
2019-02-14T17:16:49.437Z,7.91
2019-02-14T17:21:52.876Z,7.69
2019-02-14T17:26:56.297Z,7.50
2019-02-14T17:31:59.756Z,7.36
2019-02-14T17:37:03.250Z,7.14
2019-02-14T17:42:06.917Z,6.92
2019-02-14T17:47:10.322Z,6.83
2019-02-14T17:52:13.794Z,6.65
2019-02-14T17:57:17.222Z,6.51
2019-02-14T18:02:20.645Z,6.36
2019-02-14T18:07:24.055Z,6.33
2019-02-14T18:12:27.544Z,6.16
2019-02-14T18:17:31.038Z,6.05
2019-02-14T18:22:34.789Z,5.87
2019-02-14T18:27:38.337Z,5.78
2019-02-14T18:32:41.767Z,5.71
2019-02-14T18:37:45.184Z,5.55
2019-02-14T18:42:49.139Z,5.38
2019-02-14T18:47:52.826Z,5.28
2019-02-14T18:52:56.252Z,5.23
2019-02-14T18:57:59.671Z,5.16
2019-02-14T19:03:03.110Z,5.09
2019-02-14T19:08:06.519Z,4.95
2019-02-14T19:13:09.933Z,4.93
2019-02-14T19:18:13.537Z,4.82
2019-02-14T19:23:24.141Z,4.80
2019-02-14T19:28:22.135Z,4.76
2019-02-14T19:33:25.614Z,4.72
2019-02-14T19:38:29.040Z,4.66
2019-02-14T19:43:32.461Z,4.64
2019-02-14T19:48:35.992Z,4.59
2019-02-14T19:53:39.412Z,4.56
2019-02-14T19:58:42.924Z,4.53
2019-02-14T20:03:46.421Z,4.45
2019-02-14T20:08:49.880Z,4.42
2019-02-14T20:13:53.528Z,4.37
2019-02-14T20:18:56.971Z,4.29
2019-02-14T20:24:00.419Z,4.14
2019-02-14T20:29:03.866Z,4.11
2019-02-14T20:34:07.331Z,4.05
2019-02-14T20:39:10.909Z,3.97
2019-02-14T20:44:14.357Z,3.90
2019-02-14T20:49:17.757Z,3.87
2019-02-14T20:54:21.197Z,3.85
2019-02-14T20:59:24.618Z,3.71
2019-02-14T21:04:28.073Z,3.67
2019-02-14T21:09:31.497Z,3.42
2019-02-14T21:14:34.960Z,3.47
2019-02-14T21:19:38.490Z,3.45
2019-02-14T21:24:41.933Z,3.41
2019-02-14T21:29:45.931Z,3.36
2019-02-14T21:34:49.461Z,3.20
2019-02-14T21:39:53.447Z,3.23
2019-02-14T21:44:56.892Z,3.31
2019-02-14T21:50:00.810Z,3.29
2019-02-14T21:55:06.409Z,3.18
2019-02-14T22:00:14.525Z,3.18
2019-02-14T22:05:24.686Z,3.21
2019-02-14T22:10:24.791Z,3.21
2019-02-14T22:15:29.366Z,3.20
2019-02-14T22:20:32.797Z,3.26
2019-02-14T22:25:36.235Z,3.23
2019-02-14T22:30:39.742Z,3.14
2019-02-14T22:35:43.264Z,3.01
2019-02-14T22:40:46.794Z,2.92
2019-02-14T22:45:50.477Z,2.97
2019-02-14T22:50:54.105Z,2.98
2019-02-14T22:55:57.593Z,3.02
2019-02-14T23:01:01.469Z,2.96
2019-02-14T23:06:05.009Z,2.93
2019-02-14T23:11:08.419Z,2.93
2019-02-14T23:16:11.903Z,2.86
2019-02-14T23:21:15.311Z,2.91
2019-02-14T23:26:18.775Z,2.98
2019-02-14T23:31:22.184Z,2.94
2019-02-14T23:36:25.847Z,2.83
2019-02-14T23:41:29.438Z,2.83
2019-02-14T23:46:32.938Z,2.75
2019-02-14T23:51:36.368Z,2.67
2019-02-14T23:56:39.798Z,2.62
